Time;durP1;ratioP1;P1;durP2;ratioP2;P2;SDS_P1;SDS_P2;PMS_P1;PMS_P2;Temp;Humidity;BMP_temperature;BMP_pressure;BME280_temperature;BME280_humidity;BME280_pressure;Samples;Min_cycle;Max_cycle;Signal;HPM_P1;HPM_P2
2023/11/07 00:00:32;;;;;;;1.08;0.80;;;8.10;99.90;;;;;;5107298;27;20191;-84
2023/11/07 00:02:59;;;;;;;3.15;0.95;;;8.20;99.90;;;;;;5104202;28;20216;-85
2023/11/07 00:05:26;;;;;;;1.05;0.70;;;8.10;99.90;;;;;;5109009;27;20200;-84
2023/11/07 00:07:53;;;;;;;0.70;0.70;;;8.10;99.90;;;;;;5111896;27;20253;-85
2023/11/07 00:10:20;;;;;;;2.03;0.82;;;8.10;99.90;;;;;;5114281;27;20201;-84
2023/11/07 00:12:49;;;;;;;0.52;0.52;;;8.10;99.90;;;;;;5111502;28;20206;-84
2023/11/07 00:15:17;;;;;;;1.48;0.77;;;8.10;99.90;;;;;;5106909;27;20228;-84
2023/11/07 00:17:46;;;;;;;0.63;0.63;;;8.20;99.90;;;;;;5101958;27;20224;-85
2023/11/07 00:20:14;;;;;;;1.02;0.60;;;8.20;99.90;;;;;;5101902;28;20188;-84
2023/11/07 00:22:41;;;;;;;1.00;0.70;;;8.10;99.90;;;;;;5104485;27;20197;-85
2023/11/07 00:25:08;;;;;;;0.60;0.60;;;8.20;99.90;;;;;;5117014;27;20706;-84
2023/11/07 00:27:35;;;;;;;0.75;0.52;;;8.10;99.90;;;;;;5115076;27;20204;-84
2023/11/07 00:30:02;;;;;;;2.63;0.57;;;8.10;99.90;;;;;;5102800;27;20204;-84
2023/11/07 00:32:29;;;;;;;1.67;0.60;;;8.10;99.90;;;;;;5105245;27;20241;-84
2023/11/07 00:34:57;;;;;;;0.93;0.60;;;8.10;99.90;;;;;;5111621;27;20222;-85
2023/11/07 00:37:24;;;;;;;0.95;0.80;;;8.10;99.90;;;;;;5109334;27;20192;-84
2023/11/07 00:39:51;;;;;;;1.25;0.65;;;8.10;99.90;;;;;;5096003;27;20641;-84
2023/11/07 00:42:18;;;;;;;0.90;0.90;;;8.10;99.90;;;;;;5112551;27;20194;-85
2023/11/07 00:44:45;;;;;;;0.95;0.70;;;8.10;99.90;;;;;;5109791;27;20601;-85
2023/11/07 00:47:12;;;;;;;5.47;0.90;;;8.00;99.90;;;;;;5108135;27;20193;-85
2023/11/07 00:49:39;;;;;;;1.40;0.77;;;8.00;99.90;;;;;;5109652;27;21733;-84
2023/11/07 00:52:07;;;;;;;0.88;0.88;;;8.10;99.90;;;;;;5116816;27;20241;-85
2023/11/07 00:54:34;;;;;;;2.15;0.85;;;8.00;99.90;;;;;;5107700;27;20204;-85
2023/11/07 00:57:01;;;;;;;0.60;0.60;;;8.00;99.90;;;;;;5111437;27;20644;-84
2023/11/07 00:59:27;;;;;;;0.75;0.65;;;8.00;99.90;;;;;;5101802;27;20204;-84
2023/11/07 01:01:54;;;;;;;2.42;0.65;;;7.90;99.90;;;;;;5105721;28;20200;-84
2023/11/07 01:04:21;;;;;;;0.77;0.63;;;7.90;99.90;;;;;;5101776;28;20726;-85
2023/11/07 01:06:48;;;;;;;0.98;0.70;;;7.90;99.90;;;;;;5102018;27;20207;-84
2023/11/07 01:09:16;;;;;;;2.45;0.90;;;8.00;99.90;;;;;;5105989;27;20192;-84
2023/11/07 01:11:43;;;;;;;1.65;0.50;;;8.00;99.90;;;;;;5125899;27;20656;-86
2023/11/07 01:14:10;;;;;;;0.73;0.73;;;8.00;99.90;;;;;;5108506;28;20719;-84
2023/11/07 01:16:37;;;;;;;3.22;0.60;;;8.00;99.90;;;;;;5107608;27;20204;-85
2023/11/07 01:19:04;;;;;;;0.95;0.95;;;7.90;99.90;;;;;;5102654;28;20569;-84
2023/11/07 01:21:31;;;;;;;1.35;0.70;;;7.80;99.90;;;;;;5112082;27;20191;-84
2023/11/07 01:23:58;;;;;;;0.70;0.70;;;7.70;99.90;;;;;;5111172;27;20224;-85
2023/11/07 01:26:26;;;;;;;0.65;0.60;;;7.70;99.90;;;;;;5109474;28;20686;-85
2023/11/07 01:28:53;;;;;;;0.82;0.80;;;7.70;99.90;;;;;;5110106;27;20196;-84
2023/11/07 01:31:22;;;;;;;0.60;0.60;;;7.70;99.90;;;;;;5108887;28;20192;-84
2023/11/07 01:33:48;;;;;;;1.95;0.70;;;7.60;99.90;;;;;;5107533;27;20204;-84
2023/11/07 01:36:15;;;;;;;1.08;0.63;;;7.70;99.90;;;;;;5113842;27;20211;-85
2023/11/07 01:38:42;;;;;;;1.55;0.70;;;7.70;99.90;;;;;;5107329;27;21245;-85
2023/11/07 01:41:09;;;;;;;0.73;0.60;;;7.70;99.90;;;;;;5105514;27;20201;-84
2023/11/07 01:43:39;;;;;;;0.50;0.50;;;7.90;99.90;;;;;;5112882;27;20659;-84
2023/11/07 01:46:07;;;;;;;0.55;0.55;;;8.00;99.90;;;;;;5112537;27;20203;-85
2023/11/07 01:48:36;;;;;;;0.82;0.55;;;8.00;99.90;;;;;;5112379;27;20199;-85
2023/11/07 01:51:04;;;;;;;1.10;0.70;;;7.90;99.90;;;;;;5105975;28;20727;-84
2023/11/07 01:53:34;;;;;;;0.75;0.75;;;7.70;99.90;;;;;;5116596;27;20198;-85
2023/11/07 01:56:02;;;;;;;0.70;0.70;;;7.60;99.90;;;;;;5109310;28;20200;-84
2023/11/07 01:58:29;;;;;;;1.13;0.70;;;7.50;99.90;;;;;;5109955;27;20653;-85
2023/11/07 02:00:57;;;;;;;0.50;0.50;;;7.40;99.90;;;;;;5108594;27;20201;-84
2023/11/07 02:03:25;;;;;;;0.50;0.50;;;7.30;99.90;;;;;;5103035;28;20204;-85
2023/11/07 02:05:52;;;;;;;1.13;0.70;;;7.20;99.90;;;;;;5104977;27;20239;-85
2023/11/07 02:08:22;;;;;;;0.50;0.50;;;7.10;99.90;;;;;;5108165;28;20199;-85
2023/11/07 02:10:52;;;;;;;0.93;0.73;;;7.10;99.90;;;;;;5097023;28;20197;-86
2023/11/07 02:13:18;;;;;;;0.65;0.65;;;7.20;99.90;;;;;;5093583;28;20196;-85
2023/11/07 02:15:45;;;;;;;1.13;0.68;;;7.20;99.90;;;;;;5104335;27;20206;-85
2023/11/07 02:18:14;;;;;;;1.70;0.60;;;7.40;99.90;;;;;;5107818;27;20192;-84
2023/11/07 02:20:41;;;;;;;0.73;0.73;;;7.60;99.90;;;;;;5105788;27;20283;-84
2023/11/07 02:23:10;;;;;;;0.50;0.50;;;7.50;99.90;;;;;;5106456;28;20201;-85
2023/11/07 02:25:39;;;;;;;0.60;0.60;;;7.50;99.90;;;;;;5100189;28;20239;-85
2023/11/07 02:28:06;;;;;;;0.40;0.40;;;7.50;99.90;;;;;;5105328;27;20195;-85
2023/11/07 02:30:33;;;;;;;0.50;0.50;;;7.50;99.90;;;;;;5119797;27;20203;-84
2023/11/07 02:33:04;;;;;;;0.55;0.55;;;7.60;99.90;;;;;;5108109;28;20200;-85
2023/11/07 02:35:32;;;;;;;0.68;0.65;;;7.40;99.90;;;;;;5117684;27;20297;-85
2023/11/07 02:37:59;;;;;;;2.35;0.73;;;7.30;99.90;;;;;;5106599;28;20370;-84
2023/11/07 02:40:26;;;;;;;1.10;0.50;;;7.20;99.90;;;;;;5112831;27;20213;-85
2023/11/07 02:42:54;;;;;;;1.20;0.70;;;7.10;99.90;;;;;;5112018;28;20199;-84
2023/11/07 02:45:21;;;;;;;0.60;0.60;;;7.00;99.90;;;;;;5106892;28;20226;-85
2023/11/07 02:47:49;;;;;;;0.63;0.63;;;6.90;99.90;;;;;;5101654;28;20200;-85
2023/11/07 02:50:16;;;;;;;0.50;0.50;;;6.90;99.90;;;;;;5108283;28;20657;-85
2023/11/07 02:52:43;;;;;;;0.70;0.70;;;6.80;99.90;;;;;;5105603;28;20216;-85
2023/11/07 02:55:10;;;;;;;0.98;0.88;;;6.70;99.90;;;;;;5108608;27;20219;-85
2023/11/07 02:57:37;;;;;;;0.70;0.70;;;6.70;99.90;;;;;;5103518;28;20234;-85
2023/11/07 03:00:09;;;;;;;2.25;0.70;;;6.70;99.90;;;;;;5102484;28;20645;-84
2023/11/07 03:02:38;;;;;;;1.75;0.60;;;6.60;99.90;;;;;;5102173;28;20218;-85
2023/11/07 03:05:07;;;;;;;1.27;0.80;;;6.60;99.90;;;;;;5107630;28;20238;-84
2023/11/07 03:07:34;;;;;;;0.82;0.70;;;6.50;99.90;;;;;;5101838;28;21081;-85
2023/11/07 03:10:06;;;;;;;0.57;0.57;;;6.50;99.90;;;;;;5091356;28;20560;-84
2023/11/07 03:12:33;;;;;;;0.63;0.63;;;6.60;99.90;;;;;;5107727;28;20636;-84
2023/11/07 03:15:00;;;;;;;0.55;0.50;;;6.60;99.90;;;;;;5106258;28;20196;-84
2023/11/07 03:17:29;;;;;;;0.50;0.50;;;6.60;99.90;;;;;;5100535;28;20651;-85
2023/11/07 03:19:56;;;;;;;0.82;0.60;;;6.60;99.90;;;;;;5102480;28;20732;-85
2023/11/07 03:22:26;;;;;;;0.70;0.67;;;6.60;99.90;;;;;;5105534;28;20187;-85
2023/11/07 03:24:53;;;;;;;0.50;0.50;;;6.60;99.90;;;;;;5111240;27;20219;-85
2023/11/07 03:27:20;;;;;;;1.67;0.60;;;6.60;99.90;;;;;;5111576;27;20193;-85
2023/11/07 03:29:47;;;;;;;0.60;0.60;;;6.60;99.90;;;;;;5109596;27;20188;-84
2023/11/07 03:32:14;;;;;;;0.80;0.80;;;6.70;99.90;;;;;;5106288;28;20206;-85
2023/11/07 03:34:42;;;;;;;1.00;0.60;;;6.70;99.90;;;;;;5121153;27;20192;-85
2023/11/07 03:37:09;;;;;;;1.48;0.68;;;6.70;99.90;;;;;;5115276;27;20203;-85
2023/11/07 03:39:36;;;;;;;1.95;0.80;;;6.70;99.90;;;;;;5127661;27;20230;-85
2023/11/07 03:42:05;;;;;;;0.73;0.73;;;6.70;99.90;;;;;;5101509;28;20256;-86
2023/11/07 03:44:34;;;;;;;0.90;0.68;;;6.70;99.90;;;;;;5137300;27;20207;-85
2023/11/07 03:47:05;;;;;;;1.42;0.55;;;6.70;99.90;;;;;;5108290;28;20196;-84
2023/11/07 03:49:33;;;;;;;0.53;0.53;;;6.70;99.90;;;;;;5114748;27;20577;-85
2023/11/07 03:52:01;;;;;;;0.63;0.63;;;6.70;99.90;;;;;;5108779;27;20243;-86
2023/11/07 03:54:28;;;;;;;0.67;0.67;;;6.80;99.90;;;;;;5107497;28;20201;-85
2023/11/07 03:56:55;;;;;;;1.95;0.52;;;6.80;99.90;;;;;;5115904;27;20562;-85
2023/11/07 03:59:22;;;;;;;0.60;0.60;;;6.80;99.90;;;;;;5108772;27;20286;-84
2023/11/07 04:01:49;;;;;;;3.47;0.77;;;6.80;99.90;;;;;;5110381;27;20657;-85
2023/11/07 04:04:15;;;;;;;0.60;0.60;;;6.80;99.90;;;;;;5105586;27;20196;-85
2023/11/07 04:06:44;;;;;;;0.70;0.70;;;6.80;99.90;;;;;;5111194;27;20200;-85
2023/11/07 04:09:13;;;;;;;1.27;0.70;;;6.80;99.90;;;;;;5114726;27;20212;-85
2023/11/07 04:11:40;;;;;;;0.60;0.60;;;6.80;99.90;;;;;;5112572;28;20188;-84
2023/11/07 04:14:07;;;;;;;0.60;0.60;;;6.80;99.90;;;;;;5114707;27;20249;-85
2023/11/07 04:16:33;;;;;;;0.85;0.85;;;6.80;99.90;;;;;;5110121;27;20196;-85
2023/11/07 04:19:01;;;;;;;1.00;0.90;;;6.90;99.90;;;;;;5103216;27;20209;-84
2023/11/07 04:21:29;;;;;;;1.15;0.80;;;6.90;99.90;;;;;;5108537;28;20200;-85
2023/11/07 04:23:56;;;;;;;0.75;0.75;;;7.00;99.90;;;;;;5100859;27;20212;-85
2023/11/07 04:26:24;;;;;;;0.65;0.65;;;7.00;99.90;;;;;;5110849;28;20222;-85
2023/11/07 04:28:51;;;;;;;1.08;0.85;;;7.10;99.90;;;;;;5103798;27;20203;-84
2023/11/07 04:31:30;;;;;;;1.90;1.30;;;7.20;99.90;;;;;;5102399;27;20227;-84
2023/11/07 04:33:57;;;;;;;2.78;1.70;;;7.40;99.90;;;;;;5110792;27;20204;-84
2023/11/07 04:36:24;;;;;;;1.65;1.38;;;7.40;99.90;;;;;;5112074;28;20204;-85
2023/11/07 04:38:51;;;;;;;1.20;1.10;;;7.40;99.90;;;;;;5115366;27;20216;-84
2023/11/07 04:41:18;;;;;;;1.45;0.90;;;7.40;99.90;;;;;;5110629;27;20256;-85
2023/11/07 04:43:47;;;;;;;0.70;0.70;;;7.50;99.90;;;;;;5108067;27;20197;-84
2023/11/07 04:46:14;;;;;;;1.55;0.80;;;7.40;99.90;;;;;;5115890;27;20227;-85
2023/11/07 04:48:40;;;;;;;0.95;0.90;;;7.40;99.90;;;;;;5106935;27;20280;-85
2023/11/07 04:51:07;;;;;;;0.63;0.63;;;7.30;99.90;;;;;;5104976;27;20256;-85
2023/11/07 04:53:34;;;;;;;1.13;0.90;;;7.30;99.90;;;;;;5117055;27;20206;-85
2023/11/07 04:56:02;;;;;;;1.35;1.10;;;7.30;99.90;;;;;;5110398;27;20192;-85
2023/11/07 04:58:29;;;;;;;1.25;0.90;;;7.30;99.90;;;;;;5103596;27;20200;-85
2023/11/07 05:00:57;;;;;;;0.80;0.80;;;7.30;99.90;;;;;;5109815;27;20404;-85
2023/11/07 05:03:26;;;;;;;0.55;0.55;;;7.40;99.90;;;;;;5114900;27;20192;-85
2023/11/07 05:05:53;;;;;;;0.60;0.55;;;7.40;99.90;;;;;;5101467;27;20484;-85
2023/11/07 05:08:20;;;;;;;0.80;0.80;;;7.60;99.90;;;;;;5106887;28;20207;-85
2023/11/07 05:10:47;;;;;;;0.93;0.90;;;7.50;99.90;;;;;;5103793;27;20196;-85
2023/11/07 05:13:14;;;;;;;0.55;0.55;;;7.50;99.90;;;;;;5101752;28;20207;-85
2023/11/07 05:15:43;;;;;;;0.70;0.70;;;7.60;99.90;;;;;;5095710;28;20189;-85
2023/11/07 05:18:12;;;;;;;0.68;0.68;;;7.50;99.90;;;;;;5110529;28;20640;-85
2023/11/07 05:20:39;;;;;;;0.93;0.80;;;7.40;99.90;;;;;;5115748;27;20202;-84
2023/11/07 05:23:06;;;;;;;0.52;0.52;;;7.30;99.90;;;;;;5102030;28;20888;-84
2023/11/07 05:25:34;;;;;;;1.05;0.80;;;7.20;99.90;;;;;;5107363;27;20207;-85
2023/11/07 05:28:01;;;;;;;0.65;0.65;;;7.20;99.90;;;;;;5104258;28;20205;-83
2023/11/07 05:30:28;;;;;;;1.27;0.80;;;7.10;99.90;;;;;;5114133;27;20189;-84
2023/11/07 05:32:55;;;;;;;1.45;1.00;;;7.10;99.90;;;;;;5087200;28;20205;-84
2023/11/07 05:35:23;;;;;;;2.65;0.82;;;7.00;99.90;;;;;;5102894;27;20553;-88
2023/11/07 05:37:52;;;;;;;1.05;0.90;;;7.00;99.90;;;;;;5110771;27;20662;-85
2023/11/07 05:40:23;;;;;;;0.82;0.70;;;7.10;99.90;;;;;;5105840;27;20214;-84
2023/11/07 05:42:50;;;;;;;1.00;0.90;;;7.10;99.90;;;;;;5107228;27;20227;-84
2023/11/07 05:45:17;;;;;;;2.15;1.00;;;7.10;99.90;;;;;;5105122;27;20239;-85
2023/11/07 05:47:44;;;;;;;1.35;1.20;;;7.20;99.90;;;;;;5103115;27;20199;-85
2023/11/07 05:50:11;;;;;;;1.48;1.05;;;7.10;99.90;;;;;;5103721;28;20668;-85
2023/11/07 05:52:41;;;;;;;3.38;0.95;;;6.90;99.90;;;;;;5102603;28;20875;-86
2023/11/07 05:55:10;;;;;;;3.05;0.98;;;6.80;99.90;;;;;;5106027;28;20283;-86
2023/11/07 05:57:38;;;;;;;1.60;0.93;;;6.70;99.90;;;;;;5108395;27;20200;-87
2023/11/07 06:00:07;;;;;;;0.80;0.80;;;6.60;99.90;;;;;;5105460;27;20198;-84
2023/11/07 06:02:35;;;;;;;1.10;1.00;;;6.50;99.90;;;;;;5107230;27;20203;-85
2023/11/07 06:05:02;;;;;;;1.02;0.90;;;6.40;99.90;;;;;;5111797;27;20723;-84
2023/11/07 06:07:29;;;;;;;2.55;0.98;;;6.40;99.90;;;;;;5109149;27;20289;-84
2023/11/07 06:09:58;;;;;;;1.88;1.13;;;6.30;99.90;;;;;;5102593;28;20280;-85
2023/11/07 06:12:24;;;;;;;1.20;1.10;;;6.30;99.90;;;;;;5107844;27;20553;-85
2023/11/07 06:14:51;;;;;;;1.52;1.08;;;6.30;99.90;;;;;;5110840;28;20192;-83
2023/11/07 06:17:19;;;;;;;2.23;1.30;;;6.50;99.90;;;;;;5111361;27;20248;-83
2023/11/07 06:19:47;;;;;;;1.10;1.00;;;6.60;99.90;;;;;;5104261;27;20223;-85
2023/11/07 06:22:14;;;;;;;1.60;1.20;;;6.70;99.90;;;;;;5104178;27;20575;-85
2023/11/07 06:24:41;;;;;;;1.17;1.10;;;6.70;99.90;;;;;;5113864;27;20192;-83
2023/11/07 06:27:10;;;;;;;1.53;1.23;;;6.60;99.90;;;;;;5110633;28;20220;-84
2023/11/07 06:29:42;;;;;;;2.70;1.23;;;6.60;99.90;;;;;;5110708;28;20269;-83
2023/11/07 06:32:09;;;;;;;2.97;1.30;;;6.50;99.90;;;;;;5102380;28;20283;-83
2023/11/07 06:34:36;;;;;;;1.42;1.10;;;6.50;99.90;;;;;;5114082;28;20206;-83
2023/11/07 06:37:03;;;;;;;2.35;1.05;;;6.50;99.90;;;;;;5111783;27;20199;-83
2023/11/07 06:39:30;;;;;;;1.20;1.10;;;6.50;99.90;;;;;;5109205;28;20553;-84
2023/11/07 06:41:58;;;;;;;1.50;1.40;;;6.60;99.90;;;;;;5100498;28;20787;-83
2023/11/07 06:44:26;;;;;;;1.40;0.98;;;6.60;99.90;;;;;;5113630;28;20245;-83
2023/11/07 06:46:55;;;;;;;2.55;1.00;;;6.70;99.90;;;;;;5105231;28;20227;-83
2023/11/07 06:49:24;;;;;;;1.88;1.10;;;6.70;99.90;;;;;;5105957;28;20610;-84
2023/11/07 06:51:51;;;;;;;1.85;1.13;;;6.70;99.90;;;;;;5100640;28;20220;-85
2023/11/07 06:54:17;;;;;;;2.17;1.27;;;6.80;99.90;;;;;;5117306;28;20251;-83
2023/11/07 06:56:45;;;;;;;1.02;1.00;;;6.90;99.90;;;;;;5133394;27;20201;-83
2023/11/07 06:59:12;;;;;;;1.48;1.05;;;6.90;99.90;;;;;;5130468;27;20207;-84
2023/11/07 07:01:40;;;;;;;1.60;1.05;;;7.00;99.90;;;;;;5117449;27;20207;-84
2023/11/07 07:04:07;;;;;;;1.20;1.08;;;7.20;99.90;;;;;;5113046;27;20207;-85
2023/11/07 07:06:35;;;;;;;4.53;1.23;;;7.40;99.90;;;;;;5114500;27;20223;-84
2023/11/07 07:09:04;;;;;;;3.92;1.10;;;7.40;99.90;;;;;;5118777;27;20196;-84
2023/11/07 07:11:31;;;;;;;2.67;1.23;;;7.40;99.90;;;;;;5111020;28;20299;-85
2023/11/07 07:13:58;;;;;;;1.65;1.30;;;7.40;99.90;;;;;;5100288;28;20227;-84
2023/11/07 07:16:30;;;;;;;1.13;1.00;;;7.30;99.90;;;;;;5107349;27;20940;-83
2023/11/07 07:18:58;;;;;;;2.03;1.30;;;7.20;99.90;;;;;;5112872;28;20196;-84
2023/11/07 07:21:26;;;;;;;1.20;1.10;;;7.20;99.90;;;;;;5112897;27;20191;-83
2023/11/07 07:23:53;;;;;;;1.85;1.30;;;7.30;99.90;;;;;;5111326;27;20729;-82
2023/11/07 07:26:22;;;;;;;2.08;1.50;;;7.40;99.90;;;;;;5112086;27;20224;-83
2023/11/07 07:28:52;;;;;;;4.53;1.45;;;7.40;99.90;;;;;;5108723;27;20207;-83
2023/11/07 07:31:27;;;;;;;1.27;1.10;;;7.50;99.90;;;;;;5113370;27;20195;-83
2023/11/07 07:33:56;;;;;;;2.22;1.25;;;7.50;99.90;;;;;;5113816;27;20215;-84
2023/11/07 07:36:24;;;;;;;6.35;1.70;;;7.50;99.90;;;;;;5106275;27;20206;-85
2023/11/07 07:38:52;;;;;;;1.92;1.30;;;7.50;99.90;;;;;;5108941;27;20208;-85
2023/11/07 07:41:20;;;;;;;1.38;1.27;;;7.50;99.90;;;;;;5107908;27;20245;-86
2023/11/07 07:43:47;;;;;;;1.88;1.38;;;7.60;99.90;;;;;;5107568;27;20237;-85
2023/11/07 07:46:14;;;;;;;2.42;1.20;;;7.60;99.90;;;;;;5114979;27;20227;-84
2023/11/07 07:48:42;;;;;;;2.47;1.33;;;7.70;99.90;;;;;;5114476;27;20210;-85
2023/11/07 07:51:13;;;;;;;1.55;1.23;;;7.80;99.90;;;;;;5118609;27;20215;-84
2023/11/07 07:53:44;;;;;;;1.65;1.20;;;7.90;99.90;;;;;;5116325;27;20709;-85
2023/11/07 07:56:13;;;;;;;2.45;1.60;;;8.10;99.90;;;;;;5111108;27;20199;-83
2023/11/07 07:58:42;;;;;;;1.58;1.17;;;8.00;99.80;;;;;;5111238;27;20196;-83
2023/11/07 08:01:10;;;;;;;1.65;1.20;;;8.10;99.90;;;;;;5103443;28;20287;-84
2023/11/07 08:03:37;;;;;;;1.48;1.13;;;8.20;99.60;;;;;;5116445;27;20195;-85
2023/11/07 08:06:05;;;;;;;1.42;1.30;;;8.30;99.50;;;;;;5106821;27;20226;-85
2023/11/07 08:08:32;;;;;;;1.13;1.02;;;8.40;99.30;;;;;;5115493;27;20648;-84
2023/11/07 08:11:01;;;;;;;1.75;1.35;;;8.40;99.40;;;;;;5104603;28;20212;-84
2023/11/07 08:13:28;;;;;;;2.67;1.10;;;8.50;99.50;;;;;;5105093;28;20281;-84
2023/11/07 08:15:55;;;;;;;3.28;1.30;;;8.50;99.90;;;;;;5100458;27;20245;-84
2023/11/07 08:18:23;;;;;;;1.77;1.55;;;8.60;99.60;;;;;;5103552;27;20228;-84
2023/11/07 08:20:50;;;;;;;1.58;1.13;;;8.60;99.40;;;;;;5103617;27;20205;-84
2023/11/07 08:23:18;;;;;;;4.05;1.20;;;8.70;99.50;;;;;;5105981;27;20208;-84
2023/11/07 08:25:44;;;;;;;2.22;1.40;;;8.70;99.70;;;;;;5111419;27;20203;-84
2023/11/07 08:28:13;;;;;;;1.67;1.30;;;8.90;99.30;;;;;;5103524;27;20200;-85
2023/11/07 08:30:43;;;;;;;3.00;1.33;;;8.90;99.30;;;;;;5109386;28;20197;-83
2023/11/07 08:33:12;;;;;;;2.08;1.30;;;8.90;98.50;;;;;;5103142;28;20199;-82
2023/11/07 08:35:39;;;;;;;1.88;1.33;;;8.90;98.30;;;;;;5105311;28;20199;-83
2023/11/07 08:38:06;;;;;;;1.75;1.27;;;9.00;98.70;;;;;;5111353;27;20204;-84
2023/11/07 08:40:34;;;;;;;1.95;1.10;;;9.00;98.30;;;;;;5111226;27;20210;-83
2023/11/07 08:43:01;;;;;;;1.60;1.35;;;9.10;97.80;;;;;;5101983;28;20196;-83
2023/11/07 08:45:32;;;;;;;3.10;1.30;;;9.10;98.90;;;;;;5106014;27;20283;-83
2023/11/07 08:47:59;;;;;;;2.78;1.50;;;9.00;98.80;;;;;;5105021;27;20219;-84
2023/11/07 08:50:25;;;;;;;2.75;1.40;;;9.00;98.90;;;;;;5105584;28;20215;-83
2023/11/07 08:52:53;;;;;;;2.60;1.23;;;9.10;98.30;;;;;;5109151;27;20201;-83
2023/11/07 08:55:21;;;;;;;3.08;1.17;;;9.10;98.60;;;;;;5098609;27;20192;-83
2023/11/07 08:57:49;;;;;;;3.53;1.23;;;9.10;98.40;;;;;;5102796;27;20622;-85
2023/11/07 09:00:21;;;;;;;2.90;1.30;;;9.20;98.60;;;;;;5105849;27;20298;-86
2023/11/07 09:02:50;;;;;;;1.30;1.20;;;9.20;98.80;;;;;;5105310;27;20227;-84
2023/11/07 09:05:17;;;;;;;3.88;1.15;;;9.20;98.50;;;;;;5110114;27;20656;-85
2023/11/07 09:07:45;;;;;;;1.55;1.20;;;9.20;99.00;;;;;;5110832;27;20305;-86
2023/11/07 09:10:12;;;;;;;1.58;1.23;;;9.30;98.90;;;;;;5088975;28;20193;-86
2023/11/07 09:12:41;;;;;;;1.30;1.20;;;9.50;98.40;;;;;;5102128;27;20649;-86
2023/11/07 09:15:10;;;;;;;2.80;1.20;;;9.90;97.00;;;;;;5083654;28;20204;-85
2023/11/07 09:17:38;;;;;;;4.57;1.30;;;9.90;96.30;;;;;;5111840;27;20245;-84
2023/11/07 09:20:11;;;;;;;1.30;1.10;;;9.90;96.10;;;;;;5101648;28;20200;-88
2023/11/07 09:22:38;;;;;;;1.83;1.10;;;9.90;96.10;;;;;;5105969;27;20200;-84
2023/11/07 09:25:07;;;;;;;4.03;1.42;;;9.90;96.10;;;;;;5107903;27;20559;-84
2023/11/07 09:27:33;;;;;;;2.63;1.25;;;9.80;96.60;;;;;;5104649;28;20298;-84
2023/11/07 09:30:00;;;;;;;2.20;1.27;;;9.80;96.80;;;;;;5103050;27;20625;-86
2023/11/07 09:32:27;;;;;;;2.13;1.30;;;9.80;97.20;;;;;;5104629;28;20706;-84
2023/11/07 09:34:57;;;;;;;3.08;1.38;;;10.00;96.90;;;;;;5098813;28;20208;-84
2023/11/07 09:37:25;;;;;;;1.83;1.15;;;10.10;96.40;;;;;;5099943;27;20226;-84
2023/11/07 09:39:52;;;;;;;1.67;1.23;;;10.30;95.80;;;;;;5102144;28;20569;-85
2023/11/07 09:42:19;;;;;;;3.38;1.27;;;10.30;95.80;;;;;;5103836;28;20207;-84
2023/11/07 09:44:45;;;;;;;1.60;1.50;;;10.30;95.80;;;;;;5111159;27;20199;-84
2023/11/07 09:47:13;;;;;;;2.20;1.20;;;10.10;95.70;;;;;;5111675;27;20219;-84
2023/11/07 09:49:40;;;;;;;1.70;1.20;;;9.90;97.20;;;;;;5102216;27;20196;-84
2023/11/07 09:52:08;;;;;;;3.60;1.50;;;9.90;98.00;;;;;;5114363;27;20216;-84
2023/11/07 09:54:38;;;;;;;1.40;1.30;;;9.90;98.30;;;;;;5111234;27;20204;-84
2023/11/07 09:57:08;;;;;;;3.80;1.20;;;9.70;99.30;;;;;;5098179;28;20200;-85
2023/11/07 09:59:38;;;;;;;2.33;1.52;;;9.50;99.90;;;;;;5103905;28;20588;-85
2023/11/07 10:02:06;;;;;;;1.30;1.20;;;9.40;99.90;;;;;;5109838;27;20192;-84
2023/11/07 10:04:35;;;;;;;2.92;1.55;;;9.30;99.90;;;;;;5096579;27;20199;-86
2023/11/07 10:07:02;;;;;;;1.40;1.30;;;9.30;99.90;;;;;;5110460;27;20211;-85
2023/11/07 10:09:32;;;;;;;2.33;1.50;;;9.30;99.90;;;;;;5101655;28;20206;-87
2023/11/07 10:12:00;;;;;;;2.92;1.60;;;9.30;99.90;;;;;;5102184;27;20205;-85
2023/11/07 10:14:27;;;;;;;3.13;1.42;;;9.30;99.90;;;;;;5100731;28;20200;-83
2023/11/07 10:16:56;;;;;;;2.58;1.30;;;9.40;99.90;;;;;;5108161;27;20207;-85
2023/11/07 10:19:25;;;;;;;1.63;1.15;;;9.40;99.90;;;;;;5104253;28;20569;-84
2023/11/07 10:21:52;;;;;;;2.42;1.42;;;9.40;99.90;;;;;;5103793;28;20246;-85
2023/11/07 10:24:20;;;;;;;4.10;1.38;;;9.50;99.90;;;;;;5108975;27;20206;-84
2023/11/07 10:26:51;;;;;;;1.85;1.30;;;9.60;99.90;;;;;;5107867;28;20222;-85
2023/11/07 10:29:26;;;;;;;2.58;1.30;;;9.70;99.80;;;;;;5106539;27;20531;-84
2023/11/07 10:32:02;;;;;;;1.60;1.42;;;9.70;99.90;;;;;;5102679;28;20195;-85
2023/11/07 10:34:30;;;;;;;2.28;1.20;;;9.80;99.90;;;;;;5105400;27;20215;-83
2023/11/07 10:36:58;;;;;;;2.40;1.50;;;9.90;99.90;;;;;;5103143;27;20219;-84
2023/11/07 10:39:26;;;;;;;1.88;1.48;;;10.00;98.70;;;;;;5107118;27;20206;-84
2023/11/07 10:41:55;;;;;;;2.70;1.60;;;10.00;97.50;;;;;;5108191;28;20307;-84
2023/11/07 10:44:25;;;;;;;2.10;1.60;;;10.20;97.20;;;;;;5103106;28;20214;-84
2023/11/07 10:46:54;;;;;;;3.28;1.30;;;10.30;96.10;;;;;;5100554;28;20243;-84
2023/11/07 10:49:22;;;;;;;2.40;1.60;;;10.30;96.60;;;;;;5106949;28;20688;-83
2023/11/07 10:51:49;;;;;;;2.42;1.60;;;10.30;97.60;;;;;;5102619;28;20219;-85
2023/11/07 10:54:19;;;;;;;3.85;1.58;;;10.50;97.20;;;;;;5108616;28;20196;-84
2023/11/07 10:56:47;;;;;;;2.90;1.52;;;10.50;96.60;;;;;;5103143;28;20200;-84
2023/11/07 10:59:17;;;;;;;4.32;1.33;;;10.50;96.30;;;;;;5115984;28;20195;-84
2023/11/07 11:01:47;;;;;;;1.58;1.25;;;10.40;95.80;;;;;;5101338;28;20200;-84
2023/11/07 11:04:17;;;;;;;1.55;1.13;;;10.50;96.00;;;;;;5110914;28;20199;-84
2023/11/07 11:06:52;;;;;;;1.83;1.05;;;10.40;95.80;;;;;;5113344;28;20211;-84
2023/11/07 11:09:20;;;;;;;1.50;1.25;;;10.40;95.80;;;;;;5106304;28;20226;-84
2023/11/07 11:11:50;;;;;;;1.88;1.40;;;10.40;95.80;;;;;;5087113;28;20638;-84
2023/11/07 11:14:18;;;;;;;1.52;1.40;;;10.40;96.10;;;;;;5105092;28;20203;-84
2023/11/07 11:16:50;;;;;;;2.00;1.58;;;10.50;96.60;;;;;;5091743;28;20195;-83
2023/11/07 11:19:28;;;;;;;3.92;1.30;;;10.40;97.20;;;;;;5111200;28;20220;-83
2023/11/07 11:22:10;;;;;;;3.17;1.52;;;10.30;96.80;;;;;;5106951;28;20192;-84
2023/11/07 11:25:02;;;;;;;1.88;1.30;;;10.40;96.90;;;;;;5111263;28;20274;-85
2023/11/07 11:27:34;;;;;;;1.67;1.30;;;10.20;96.30;;;;;;5110709;28;20207;-85
2023/11/07 11:30:05;;;;;;;3.08;1.50;;;10.10;97.00;;;;;;5110109;28;20196;-85
2023/11/07 11:32:33;;;;;;;3.60;1.48;;;10.00;98.10;;;;;;5101610;28;20189;-84
2023/11/07 11:35:28;;;;;;;2.72;1.60;;;9.90;98.90;;;;;;5109850;28;20671;-83
2023/11/07 11:38:13;;;;;;;1.65;1.20;;;10.00;98.90;;;;;;5114957;28;20562;-83
2023/11/07 11:40:54;;;;;;;1.50;1.40;;;10.00;99.10;;;;;;5104873;28;20200;-84
2023/11/07 11:43:22;;;;;;;1.63;1.35;;;10.20;98.20;;;;;;5115223;27;20192;-84
2023/11/07 11:45:50;;;;;;;3.92;1.30;;;10.40;97.00;;;;;;5119747;27;20200;-84
2023/11/07 11:48:19;;;;;;;1.85;1.58;;;10.60;95.90;;;;;;5103708;27;20264;-82
2023/11/07 11:50:47;;;;;;;2.20;1.25;;;10.60;95.90;;;;;;5107103;28;20212;-83
2023/11/07 11:53:32;;;;;;;2.10;1.30;;;10.50;95.80;;;;;;5113459;27;20220;-82
2023/11/07 11:56:12;;;;;;;2.50;1.23;;;10.50;95.50;;;;;;5103127;27;20648;-82
2023/11/07 11:58:41;;;;;;;1.67;1.40;;;10.50;95.80;;;;;;5113468;28;20295;-82
2023/11/07 12:01:11;;;;;;;2.55;1.40;;;10.50;95.80;;;;;;5102949;28;20269;-83
2023/11/07 12:03:45;;;;;;;2.13;1.30;;;10.50;95.40;;;;;;5114302;27;20199;-83
2023/11/07 12:06:13;;;;;;;2.78;1.38;;;10.50;95.70;;;;;;5105613;27;20987;-87
2023/11/07 12:08:42;;;;;;;1.83;1.13;;;10.60;95.30;;;;;;5107509;27;20310;-86
2023/11/07 12:11:10;;;;;;;1.67;1.25;;;10.50;95.80;;;;;;5110847;27;20611;-86
2023/11/07 12:13:38;;;;;;;2.60;1.27;;;10.50;95.40;;;;;;5113376;27;20570;-86
2023/11/07 12:16:19;;;;;;;3.80;1.50;;;10.50;94.40;;;;;;5109055;27;20249;-86
2023/11/07 12:18:51;;;;;;;1.73;1.10;;;10.50;94.50;;;;;;5103606;28;20195;-86
2023/11/07 12:21:21;;;;;;;2.40;1.38;;;10.50;94.30;;;;;;5111784;27;20221;-86
2023/11/07 12:23:48;;;;;;;2.55;1.50;;;10.60;94.70;;;;;;5112481;27;20556;-85
2023/11/07 12:26:15;;;;;;;3.00;1.30;;;10.60;94.50;;;;;;5113138;27;20197;-86
2023/11/07 12:28:43;;;;;;;2.10;1.30;;;10.70;94.00;;;;;;5105106;27;21630;-86
2023/11/07 12:31:10;;;;;;;1.27;1.10;;;10.80;93.00;;;;;;5097066;27;20204;-84
2023/11/07 12:33:41;;;;;;;1.60;1.50;;;10.80;93.20;;;;;;5107446;27;20204;-86
2023/11/07 12:36:12;;;;;;;2.40;1.30;;;10.80;92.30;;;;;;5104770;27;20284;-86
2023/11/07 12:38:39;;;;;;;1.30;1.20;;;10.80;93.10;;;;;;5108620;27;20542;-87
2023/11/07 12:41:06;;;;;;;1.30;1.20;;;10.80;93.10;;;;;;5112496;27;20708;-87
2023/11/07 12:43:40;;;;;;;1.35;1.20;;;10.80;93.40;;;;;;5113405;27;20663;-86
2023/11/07 12:46:12;;;;;;;1.20;1.10;;;10.90;92.60;;;;;;5105933;27;20195;-86
2023/11/07 12:48:40;;;;;;;1.05;0.85;;;11.00;92.10;;;;;;5107811;27;20238;-86
2023/11/07 12:51:08;;;;;;;1.35;1.10;;;11.20;91.80;;;;;;5110063;27;20586;-88
2023/11/07 12:53:47;;;;;;;1.90;1.17;;;11.30;91.70;;;;;;5111681;27;20287;-86
2023/11/07 12:56:16;;;;;;;1.20;1.10;;;11.50;91.00;;;;;;5114294;27;20204;-85
2023/11/07 12:58:45;;;;;;;1.63;1.23;;;11.50;91.90;;;;;;5113271;27;20196;-85
2023/11/07 13:01:12;;;;;;;1.40;1.00;;;11.50;92.70;;;;;;5103715;28;20256;-87